createdAt,value
2022-08-24T00:02:06.300Z,21.80
2022-08-24T00:04:36.117Z,21.80
2022-08-24T00:07:13.831Z,21.70
2022-08-24T00:09:57.393Z,21.70
2022-08-24T00:12:26.696Z,21.70
2022-08-24T00:14:56.655Z,21.70
2022-08-24T00:17:26.061Z,21.70
2022-08-24T00:19:55.381Z,21.70
2022-08-24T00:22:24.612Z,21.60
2022-08-24T00:24:53.974Z,21.50
2022-08-24T00:27:24.682Z,21.60
2022-08-24T00:29:53.976Z,21.60
2022-08-24T00:32:23.248Z,21.60
2022-08-24T00:34:58.405Z,21.60
2022-08-24T00:37:30.034Z,21.60
2022-08-24T00:39:59.991Z,21.60
2022-08-24T00:42:30.647Z,21.50
2022-08-24T00:44:59.888Z,21.50
2022-08-24T00:47:36.383Z,21.40
2022-08-24T00:50:08.824Z,21.30
2022-08-24T00:52:42.594Z,21.30
2022-08-24T00:55:15.861Z,21.30
2022-08-24T00:57:50.670Z,21.40
2022-08-24T01:00:24.177Z,21.30
2022-08-24T01:03:04.483Z,21.30
2022-08-24T01:05:34.176Z,21.20
2022-08-24T01:08:05.679Z,21.20
2022-08-24T01:10:39.354Z,21.20
2022-08-24T01:13:12.237Z,21.20
2022-08-24T01:15:45.916Z,21.20
2022-08-24T01:18:35.983Z,21.20
2022-08-24T01:21:13.500Z,21.10
2022-08-24T01:23:45.938Z,21.10
2022-08-24T01:26:19.521Z,21.10
2022-08-24T01:28:53.246Z,21.10
2022-08-24T01:31:23.657Z,21.00
2022-08-24T01:33:54.710Z,21.10
2022-08-24T01:36:31.024Z,21.10
2022-08-24T01:39:05.349Z,21.10
2022-08-24T01:41:34.631Z,21.10
2022-08-24T01:44:05.650Z,21.10
2022-08-24T01:46:35.835Z,21.10
2022-08-24T01:49:05.501Z,21.20
2022-08-24T01:51:35.568Z,21.20
2022-08-24T01:54:06.735Z,21.30
2022-08-24T01:56:36.896Z,21.30
2022-08-24T01:59:08.324Z,21.30
2022-08-24T02:01:41.428Z,21.30
2022-08-24T02:04:11.464Z,21.30
2022-08-24T02:06:48.768Z,21.40
2022-08-24T02:09:20.813Z,21.40
2022-08-24T02:11:50.871Z,21.40
2022-08-24T02:14:20.816Z,21.40
2022-08-24T02:16:50.121Z,21.30
2022-08-24T02:19:26.747Z,21.40
2022-08-24T02:21:56.209Z,21.40
2022-08-24T02:24:26.869Z,21.40
2022-08-24T02:26:57.053Z,21.30
2022-08-24T02:29:26.828Z,21.30
2022-08-24T02:31:58.054Z,21.10
2022-08-24T02:34:27.864Z,21.10
2022-08-24T02:36:58.104Z,21.10
2022-08-24T02:39:29.331Z,21.00
2022-08-24T02:41:58.778Z,21.00
2022-08-24T02:44:27.972Z,20.90
2022-08-24T02:46:57.588Z,20.90
2022-08-24T02:49:26.900Z,20.90
2022-08-24T02:51:56.853Z,20.80
2022-08-24T02:54:27.701Z,20.80
2022-08-24T02:56:57.237Z,20.80
2022-08-24T02:59:27.112Z,20.70
2022-08-24T03:01:56.504Z,20.70
2022-08-24T03:04:26.734Z,20.70
2022-08-24T03:06:55.907Z,20.70
2022-08-24T03:09:25.441Z,20.70
2022-08-24T03:12:01.169Z,20.60
2022-08-24T03:14:30.509Z,20.60
2022-08-24T03:16:59.775Z,20.60
2022-08-24T03:19:29.117Z,20.60
2022-08-24T03:21:59.078Z,20.60
2022-08-24T03:24:28.631Z,20.60
2022-08-24T03:26:58.580Z,20.70
2022-08-24T03:29:33.774Z,20.60
2022-08-24T03:32:05.297Z,20.60
2022-08-24T03:34:34.961Z,20.70
2022-08-24T03:37:05.031Z,20.70
2022-08-24T03:39:34.932Z,20.60
2022-08-24T03:42:04.902Z,20.60
2022-08-24T03:44:35.614Z,20.50
2022-08-24T03:47:05.245Z,20.50
2022-08-24T03:49:34.652Z,20.50
2022-08-24T03:52:04.359Z,20.50
2022-08-24T03:54:33.941Z,20.40
2022-08-24T03:57:03.438Z,20.40
2022-08-24T03:59:34.322Z,20.50
2022-08-24T04:02:10.435Z,20.40
2022-08-24T04:04:44.327Z,20.40
2022-08-24T04:07:13.864Z,20.30
2022-08-24T04:09:43.149Z,20.30
2022-08-24T04:12:12.512Z,20.20
2022-08-24T04:14:43.141Z,20.30
2022-08-24T04:17:17.051Z,20.20
2022-08-24T04:19:58.601Z,20.20
2022-08-24T04:22:37.725Z,20.20
2022-08-24T04:25:09.589Z,20.20
2022-08-24T04:27:42.079Z,20.20
2022-08-24T04:30:15.362Z,20.10
2022-08-24T04:33:03.210Z,20.10
2022-08-24T04:35:33.560Z,20.10
2022-08-24T04:38:02.833Z,20.10
2022-08-24T04:40:32.515Z,20.10
2022-08-24T04:43:02.004Z,20.10
2022-08-24T04:45:34.353Z,20.00
2022-08-24T04:48:06.020Z,20.10
2022-08-24T04:50:36.728Z,20.30
2022-08-24T04:53:11.912Z,20.40
2022-08-24T04:55:46.121Z,20.50
2022-08-24T04:58:17.681Z,20.70
2022-08-24T05:00:49.327Z,20.70
2022-08-24T05:03:19.302Z,20.80
2022-08-24T05:05:51.394Z,21.00
2022-08-24T05:08:21.774Z,21.00
2022-08-24T05:10:52.003Z,21.10
2022-08-24T05:13:22.742Z,21.20
2022-08-24T05:15:53.533Z,21.20
2022-08-24T05:18:23.178Z,21.30
2022-08-24T05:20:52.464Z,21.30
2022-08-24T05:23:21.884Z,21.30
2022-08-24T05:25:52.701Z,21.20
2022-08-24T05:28:23.681Z,21.10
2022-08-24T05:30:57.544Z,21.10
2022-08-24T05:33:27.631Z,21.10
2022-08-24T05:35:56.967Z,21.10
2022-08-24T05:38:27.434Z,21.10
2022-08-24T05:40:57.383Z,21.00
2022-08-24T05:43:28.555Z,21.00
2022-08-24T05:45:59.381Z,21.00
2022-08-24T05:48:28.883Z,21.00
2022-08-24T05:51:11.793Z,20.90
2022-08-24T05:53:51.536Z,20.90
2022-08-24T05:56:22.196Z,20.90
2022-08-24T05:58:52.493Z,20.90
2022-08-24T06:01:26.567Z,20.90
2022-08-24T06:03:57.345Z,20.90
2022-08-24T06:06:28.109Z,20.80
2022-08-24T06:08:59.327Z,20.80
2022-08-24T06:11:32.233Z,20.80
2022-08-24T06:14:07.394Z,20.90
2022-08-24T06:16:43.174Z,20.80
2022-08-24T06:20:17.708Z,20.70
2022-08-24T06:22:47.334Z,20.80
2022-08-24T06:25:34.208Z,20.80
2022-08-24T06:28:03.557Z,20.90
2022-08-24T06:30:32.713Z,20.90
2022-08-24T06:33:19.027Z,21.00
2022-08-24T06:35:51.693Z,21.00
2022-08-24T06:38:22.172Z,21.10
2022-08-24T06:40:53.419Z,21.10
2022-08-24T06:43:24.753Z,21.20
2022-08-24T06:45:57.655Z,21.20
2022-08-24T06:48:34.766Z,21.20
2022-08-24T06:51:09.336Z,21.20
2022-08-24T06:53:41.113Z,21.20
2022-08-24T06:56:11.970Z,21.30
2022-08-24T06:58:42.009Z,21.30
2022-08-24T07:01:18.123Z,21.30
2022-08-24T07:03:49.984Z,21.40
2022-08-24T07:06:39.383Z,21.40
2022-08-24T07:09:08.785Z,21.40
2022-08-24T07:11:38.532Z,21.40
2022-08-24T07:14:08.733Z,21.40
2022-08-24T07:16:38.709Z,21.50
2022-08-24T07:19:10.139Z,21.50
2022-08-24T07:21:39.503Z,21.50
2022-08-24T07:24:08.941Z,21.50
2022-08-24T07:26:41.551Z,21.50
2022-08-24T07:29:36.822Z,21.60
2022-08-24T07:32:06.791Z,21.60
2022-08-24T07:34:40.118Z,21.60
2022-08-24T07:37:10.638Z,21.60
2022-08-24T07:39:44.032Z,21.60
2022-08-24T07:42:19.067Z,21.70
2022-08-24T07:44:51.922Z,21.70
2022-08-24T07:47:37.497Z,21.70
2022-08-24T07:50:20.115Z,21.70
2022-08-24T07:52:49.522Z,21.70
2022-08-24T07:55:19.093Z,21.70
2022-08-24T07:57:49.259Z,21.70
2022-08-24T08:00:21.514Z,21.80
2022-08-24T08:02:57.000Z,21.80
2022-08-24T08:05:28.122Z,21.80
2022-08-24T08:07:59.127Z,21.80
2022-08-24T08:10:31.343Z,21.90
2022-08-24T08:13:00.731Z,21.80
2022-08-24T08:15:30.059Z,21.90
2022-08-24T08:18:06.110Z,21.90
2022-08-24T08:20:42.309Z,21.90
2022-08-24T08:23:30.407Z,21.90
2022-08-24T08:26:16.658Z,21.90
2022-08-24T08:29:08.436Z,21.90
2022-08-24T08:31:39.519Z,22.00
2022-08-24T08:34:10.621Z,21.90
2022-08-24T08:36:42.264Z,21.90
2022-08-24T08:39:14.746Z,22.00
2022-08-24T08:42:15.139Z,22.00
2022-08-24T08:45:18.576Z,22.00
2022-08-24T08:48:22.904Z,22.00
2022-08-24T08:51:30.510Z,22.00
2022-08-24T08:54:19.463Z,22.10
2022-08-24T08:57:12.567Z,22.10
2022-08-24T08:59:58.212Z,22.10
2022-08-24T09:02:52.123Z,22.20
2022-08-24T09:06:05.287Z,22.20
2022-08-24T09:08:57.533Z,22.20
2022-08-24T09:11:38.279Z,22.20
2022-08-24T09:14:34.533Z,22.20
2022-08-24T09:17:17.579Z,22.20
2022-08-24T09:20:11.122Z,22.30
2022-08-24T09:22:43.584Z,22.30
2022-08-24T09:25:30.126Z,22.30
2022-08-24T09:28:21.699Z,22.30
2022-08-24T09:31:29.781Z,22.40
2022-08-24T09:34:09.836Z,22.40
2022-08-24T09:36:55.393Z,22.40
2022-08-24T09:39:50.756Z,22.40
2022-08-24T09:42:57.645Z,22.50
2022-08-24T09:45:58.651Z,22.50
2022-08-24T09:49:03.992Z,22.50
2022-08-24T09:52:10.542Z,22.50
2022-08-24T09:55:16.028Z,22.50
2022-08-24T09:58:01.601Z,22.40
2022-08-24T10:00:35.925Z,22.40
2022-08-24T10:03:35.003Z,22.40
2022-08-24T10:06:26.758Z,22.50
2022-08-24T10:09:24.260Z,22.50
2022-08-24T10:12:02.626Z,22.50
2022-08-24T10:14:46.167Z,22.50
2022-08-24T10:17:22.018Z,22.50
2022-08-24T10:20:06.332Z,22.50
2022-08-24T10:22:56.549Z,22.50
2022-08-24T10:25:36.463Z,22.50
2022-08-24T10:28:29.059Z,22.60
2022-08-24T10:31:06.890Z,22.60
2022-08-24T10:33:48.756Z,22.60
2022-08-24T10:36:45.426Z,22.60
2022-08-24T10:39:43.613Z,22.60
2022-08-24T10:43:05.687Z,22.70
2022-08-24T10:46:09.814Z,22.70
2022-08-24T10:48:59.655Z,22.70
2022-08-24T10:51:40.356Z,22.70
2022-08-24T10:54:14.059Z,22.70
2022-08-24T10:56:50.632Z,22.70
2022-08-24T10:59:25.070Z,22.70
2022-08-24T11:02:10.031Z,22.70
2022-08-24T11:04:43.685Z,22.70
2022-08-24T11:07:19.679Z,22.70
2022-08-24T11:09:54.257Z,22.70
2022-08-24T11:12:27.710Z,22.70
2022-08-24T11:14:59.486Z,22.70
2022-08-24T11:17:30.803Z,22.70
2022-08-24T11:20:00.595Z,22.70
2022-08-24T11:22:37.107Z,22.70
2022-08-24T11:25:16.522Z,22.70
2022-08-24T11:27:47.810Z,22.70
2022-08-24T11:30:25.643Z,22.70
2022-08-24T11:32:57.179Z,22.70
2022-08-24T11:35:28.856Z,22.70
2022-08-24T11:38:21.513Z,22.70
2022-08-24T11:40:56.844Z,22.70
2022-08-24T11:43:55.735Z,22.70
2022-08-24T11:46:33.698Z,22.70
2022-08-24T11:49:11.324Z,22.70
2022-08-24T11:51:50.988Z,22.70
2022-08-24T11:54:27.642Z,22.70
2022-08-24T11:57:10.465Z,22.70
2022-08-24T11:59:47.398Z,22.70
2022-08-24T12:02:23.423Z,22.70
2022-08-24T12:04:59.043Z,22.70
2022-08-24T12:07:37.212Z,22.70
2022-08-24T12:10:28.548Z,22.70
2022-08-24T12:13:07.731Z,22.70
2022-08-24T12:15:51.828Z,22.70
2022-08-24T12:18:31.180Z,22.70
2022-08-24T12:21:00.708Z,22.70
2022-08-24T12:23:37.503Z,22.70
2022-08-24T12:26:12.847Z,22.70
2022-08-24T12:28:54.113Z,22.70
2022-08-24T12:31:29.722Z,22.70
2022-08-24T12:34:03.040Z,22.70
2022-08-24T12:36:37.859Z,22.70
2022-08-24T12:39:14.473Z,22.80
2022-08-24T12:41:53.681Z,22.70
2022-08-24T12:44:40.014Z,22.80
2022-08-24T12:47:09.567Z,22.70
2022-08-24T12:49:48.057Z,22.80
2022-08-24T12:52:37.549Z,22.80
2022-08-24T12:55:28.091Z,22.80
2022-08-24T12:58:31.067Z,22.80
2022-08-24T13:01:03.914Z,22.80
2022-08-24T13:03:37.820Z,22.80
2022-08-24T13:06:09.881Z,22.80
2022-08-24T13:08:42.212Z,22.80
2022-08-24T13:11:15.004Z,22.80
2022-08-24T13:13:48.164Z,22.80
2022-08-24T13:16:50.285Z,22.80
2022-08-24T13:19:34.713Z,22.80
2022-08-24T13:22:36.961Z,22.80
2022-08-24T13:25:24.575Z,22.80
2022-08-24T13:28:06.946Z,22.80
2022-08-24T13:30:55.223Z,22.80
2022-08-24T13:33:33.091Z,22.80
2022-08-24T13:36:08.635Z,22.80
2022-08-24T13:38:59.797Z,22.80
2022-08-24T13:41:55.367Z,22.80
2022-08-24T13:44:33.011Z,22.80
2022-08-24T13:47:13.101Z,22.80
2022-08-24T13:50:02.303Z,22.80
2022-08-24T13:52:42.913Z,22.90
2022-08-24T13:55:29.133Z,22.90
2022-08-24T13:58:14.779Z,22.90
2022-08-24T14:00:50.147Z,22.90
2022-08-24T14:03:46.481Z,22.90
2022-08-24T14:06:29.045Z,22.90
2022-08-24T14:09:13.104Z,22.90
2022-08-24T14:11:59.332Z,22.90
2022-08-24T14:14:47.138Z,22.90
2022-08-24T14:17:40.848Z,22.90
2022-08-24T14:20:22.244Z,22.90
2022-08-24T14:23:04.761Z,22.90
2022-08-24T14:25:36.467Z,22.90
2022-08-24T14:28:35.458Z,23.00
2022-08-24T14:31:18.165Z,23.00
2022-08-24T14:34:22.825Z,23.00
2022-08-24T14:36:59.604Z,23.00
2022-08-24T14:39:38.323Z,23.00
2022-08-24T14:42:17.746Z,23.00
2022-08-24T14:44:53.012Z,23.00
2022-08-24T14:47:35.862Z,23.00
2022-08-24T14:50:13.782Z,23.00
2022-08-24T14:53:02.169Z,23.00
2022-08-24T14:55:43.488Z,23.00
2022-08-24T14:58:29.304Z,23.00
2022-08-24T15:01:36.822Z,23.00
2022-08-24T15:04:37.106Z,23.00
2022-08-24T15:07:29.275Z,23.00
2022-08-24T15:10:00.413Z,23.00
2022-08-24T15:12:38.096Z,23.00
2022-08-24T15:15:15.448Z,23.00
2022-08-24T15:17:55.034Z,23.00
2022-08-24T15:20:58.742Z,23.00
2022-08-24T15:23:43.761Z,23.10
2022-08-24T15:26:19.727Z,23.00
2022-08-24T15:28:55.396Z,23.00
2022-08-24T15:31:28.959Z,23.10
2022-08-24T15:34:02.451Z,23.10
2022-08-24T15:36:34.450Z,23.10
2022-08-24T15:39:05.870Z,23.10
2022-08-24T15:41:38.160Z,23.10
2022-08-24T15:44:12.715Z,23.00
2022-08-24T15:46:53.395Z,23.10
2022-08-24T15:49:25.472Z,23.10
2022-08-24T15:51:57.754Z,23.10
2022-08-24T15:54:34.149Z,23.10
2022-08-24T15:57:05.894Z,23.10
2022-08-24T15:59:49.293Z,23.10
2022-08-24T16:02:27.035Z,23.10
2022-08-24T16:05:14.419Z,23.10
2022-08-24T16:08:12.075Z,23.10
2022-08-24T16:10:43.273Z,23.10
2022-08-24T16:13:26.374Z,23.10
2022-08-24T16:16:02.717Z,23.10
2022-08-24T16:18:47.973Z,23.10
2022-08-24T16:21:22.840Z,23.10
2022-08-24T16:24:01.500Z,23.10
2022-08-24T16:26:33.646Z,23.10
2022-08-24T16:29:03.144Z,23.10
2022-08-24T16:31:52.028Z,23.10
2022-08-24T16:34:30.986Z,23.10
2022-08-24T16:37:00.586Z,23.10
2022-08-24T16:39:29.779Z,23.10
2022-08-24T16:42:01.300Z,23.10
2022-08-24T16:44:36.825Z,23.10
2022-08-24T16:47:08.714Z,23.10
2022-08-24T16:49:39.378Z,23.10
2022-08-24T16:52:08.652Z,23.20
2022-08-24T16:54:37.823Z,23.20
2022-08-24T16:57:13.096Z,23.20
2022-08-24T16:59:44.480Z,23.20
2022-08-24T17:02:15.731Z,23.20
2022-08-24T17:04:45.126Z,23.20
2022-08-24T17:07:17.580Z,23.20
2022-08-24T17:09:48.503Z,23.20
2022-08-24T17:12:17.965Z,23.20
2022-08-24T17:14:47.082Z,23.20
2022-08-24T17:17:21.779Z,23.30
2022-08-24T17:19:53.245Z,23.30
2022-08-24T17:22:23.387Z,23.30
2022-08-24T17:24:53.065Z,23.30
2022-08-24T17:27:29.587Z,23.30
2022-08-24T17:29:59.726Z,23.30
2022-08-24T17:32:30.428Z,23.30
2022-08-24T17:34:59.686Z,23.30
2022-08-24T17:37:29.130Z,23.30
2022-08-24T17:40:00.371Z,23.30
2022-08-24T17:45:19.266Z,23.30
2022-08-24T17:47:50.110Z,23.30
2022-08-24T17:50:20.078Z,23.30
2022-08-24T17:52:49.494Z,23.30
2022-08-24T17:55:25.886Z,23.30
2022-08-24T17:57:55.232Z,23.30
2022-08-24T18:00:24.600Z,23.30
2022-08-24T18:02:55.172Z,23.30
2022-08-24T18:05:24.757Z,23.30
2022-08-24T18:07:56.444Z,23.30
2022-08-24T18:10:28.803Z,23.30
2022-08-24T18:12:58.632Z,23.30
2022-08-24T18:15:34.823Z,23.30
2022-08-24T18:18:09.889Z,23.30
2022-08-24T18:20:41.708Z,23.30
2022-08-24T18:23:11.807Z,23.30
2022-08-24T18:25:45.944Z,23.30
2022-08-24T18:28:16.879Z,23.40
2022-08-24T18:30:47.297Z,23.30
2022-08-24T18:33:18.413Z,23.30
2022-08-24T18:35:47.775Z,23.30
2022-08-24T18:38:17.074Z,23.30
2022-08-24T18:40:52.398Z,23.40
2022-08-24T18:43:25.168Z,23.40
2022-08-24T18:45:55.172Z,23.40
2022-08-24T18:48:25.779Z,23.30
2022-08-24T18:50:55.144Z,23.30
2022-08-24T18:53:27.394Z,23.30
2022-08-24T18:55:57.765Z,23.40
2022-08-24T18:58:29.316Z,23.30
2022-08-24T19:01:00.816Z,23.30
2022-08-24T19:03:33.901Z,23.30
2022-08-24T19:06:03.264Z,23.30
2022-08-24T19:08:35.453Z,23.30
2022-08-24T19:11:05.254Z,23.30
2022-08-24T19:13:35.825Z,23.30
2022-08-24T19:16:06.414Z,23.30
2022-08-24T19:18:37.398Z,23.30
2022-08-24T19:21:07.219Z,23.40
2022-08-24T19:23:39.419Z,23.40
2022-08-24T19:26:08.869Z,23.40
2022-08-24T19:28:38.362Z,23.40
2022-08-24T19:31:14.213Z,23.40
2022-08-24T19:33:50.006Z,23.40
2022-08-24T19:36:22.479Z,23.40
2022-08-24T19:38:52.253Z,23.30
2022-08-24T19:41:23.040Z,23.30
2022-08-24T19:44:26.139Z,23.40
2022-08-24T19:46:57.485Z,23.40
2022-08-24T19:49:28.708Z,23.40
2022-08-24T19:51:58.584Z,23.40
2022-08-24T19:54:28.887Z,23.40
2022-08-24T19:57:01.747Z,23.30
2022-08-24T19:59:39.052Z,23.30
2022-08-24T20:02:08.886Z,23.20
2022-08-24T20:04:39.589Z,23.30
2022-08-24T20:07:18.002Z,23.20
2022-08-24T20:09:48.684Z,23.10
2022-08-24T20:12:18.294Z,23.10
2022-08-24T20:14:47.463Z,23.20
2022-08-24T20:17:16.643Z,23.20
2022-08-24T20:19:47.444Z,23.20
2022-08-24T20:22:16.901Z,23.20
2022-08-24T20:24:46.108Z,23.20
2022-08-24T20:27:18.951Z,23.20
2022-08-24T20:29:48.174Z,23.10
2022-08-24T20:32:17.335Z,23.10
2022-08-24T20:34:47.912Z,23.10
2022-08-24T20:37:21.606Z,23.10
2022-08-24T20:39:50.848Z,23.00
2022-08-24T20:42:21.458Z,23.00
2022-08-24T20:44:50.868Z,23.00
2022-08-24T20:47:20.443Z,23.00
2022-08-24T20:49:51.761Z,23.00
2022-08-24T20:52:21.297Z,23.00
2022-08-24T20:54:50.676Z,22.90
2022-08-24T20:57:21.741Z,22.90
2022-08-24T20:59:51.060Z,22.90
2022-08-24T21:02:20.157Z,22.90
2022-08-24T21:04:50.778Z,22.90
2022-08-24T21:07:20.047Z,22.90
2022-08-24T21:09:49.254Z,22.90
2022-08-24T21:12:18.700Z,22.80
2022-08-24T21:14:47.861Z,22.80
2022-08-24T21:17:21.003Z,22.80
2022-08-24T21:19:51.619Z,22.80
2022-08-24T21:22:20.932Z,22.80
2022-08-24T21:24:50.168Z,22.80
2022-08-24T21:27:19.733Z,22.80
2022-08-24T21:29:48.925Z,22.70
2022-08-24T21:32:35.332Z,22.70
2022-08-24T21:35:06.576Z,22.70
2022-08-24T21:37:36.152Z,22.70
2022-08-24T21:40:06.959Z,22.70
2022-08-24T21:42:36.899Z,22.70
2022-08-24T21:45:07.548Z,22.70
2022-08-24T21:47:37.470Z,22.70
2022-08-24T21:50:09.514Z,22.70
2022-08-24T21:52:38.806Z,22.70
2022-08-24T21:55:14.227Z,22.70
2022-08-24T21:57:45.019Z,22.70
2022-08-24T22:00:18.573Z,22.60
2022-08-24T22:02:48.969Z,22.60
2022-08-24T22:05:19.937Z,22.60
2022-08-24T22:07:49.260Z,22.50
2022-08-24T22:10:18.447Z,22.50
2022-08-24T22:12:47.586Z,22.50
2022-08-24T22:15:18.611Z,22.50
2022-08-24T22:17:52.971Z,22.40
2022-08-24T22:20:23.805Z,22.40
2022-08-24T22:22:53.116Z,22.40
2022-08-24T22:25:22.429Z,22.40
2022-08-24T22:27:51.806Z,22.40
2022-08-24T22:30:21.062Z,22.40
2022-08-24T22:32:50.303Z,22.40
2022-08-24T22:35:19.546Z,22.40
2022-08-24T22:37:50.281Z,22.40
2022-08-24T22:40:20.001Z,22.40
2022-08-24T22:42:49.139Z,22.40
2022-08-24T22:45:18.409Z,22.40
2022-08-24T22:47:47.684Z,22.40
2022-08-24T22:50:18.655Z,22.30
2022-08-24T22:52:49.328Z,22.30
2022-08-24T22:55:18.676Z,22.30
2022-08-24T22:57:51.242Z,22.30
2022-08-24T23:00:21.271Z,22.30
2022-08-24T23:02:50.507Z,22.30
2022-08-24T23:05:19.745Z,22.30
2022-08-24T23:07:50.483Z,22.30
2022-08-24T23:10:20.277Z,22.30
2022-08-24T23:12:49.392Z,22.30
2022-08-24T23:15:18.749Z,22.30
2022-08-24T23:17:47.993Z,22.20
2022-08-24T23:20:16.206Z,22.20
2022-08-24T23:22:45.341Z,22.20
2022-08-24T23:25:16.038Z,22.20
2022-08-24T23:27:49.379Z,22.20
2022-08-24T23:30:19.287Z,22.20
2022-08-24T23:32:48.675Z,22.20
2022-08-24T23:35:17.924Z,22.20
2022-08-24T23:37:47.893Z,22.20
2022-08-24T23:40:19.127Z,22.20
2022-08-24T23:42:48.369Z,22.20
2022-08-24T23:45:17.753Z,22.20
2022-08-24T23:47:46.962Z,22.10
2022-08-24T23:50:18.884Z,22.10
2022-08-24T23:52:48.023Z,22.00
2022-08-24T23:55:21.130Z,22.00
2022-08-24T23:57:52.138Z,22.00
